BID weather

Block Island State Airport
Block Island, Rhode Island, United States

Public forecast

Using degrees Fahrenheit for public forecast. Weather courtesy of forecast.io.

METAR (pilot weather report)

Retrieved 2019/04/21 07:56 UTC (19 minutes ago):

KBID 210756Z AUTO 15004KT 10SM OVC050 12/12 A2997 RMK AO2 SLP154 T01220117

TAF (pilot weather forecast)

Closest forecast is Groton New London Airport, 23.2 nm (43.0 km) WNW. Retrieved 2019/04/21 06:28 UTC (2 hours ago):

TAF KGON 210526Z 2106/2206 15007KT 5SM BR SCT015 BKN040 TEMPO 2106/2108 2SM -SHRA BR BKN006 FM210800 17007KT 3SM BR VCSH SCT015 BKN040 FM211300 16007KT P6SM SCT006 BKN050 FM212300 VRB04KT P6SM SCT010 BKN050